Craig E Philip — WDD4083 — position and weather

sailwx.info

Track history (hours):
 
Tides and Currents Weather Stations Pressure Air Temp Water Temp Dewpoint Dewpoint Depression Visibility Wind Speed Wind Dir Waves Ship Positions

Craig E Philip

Owner: Ingram Barge Company LLC, NASHVILLE, TN. More information available from US FCC via Universal Licensing System and Coast Guard Vessel Documentation Center.

Last reported at 2017-Oct-14 13:18 UTC. Time now 2017-Oct-20 01:21 UTC.
Position N 32°40' W 091°07'.

Length 61 m.

Type: Towing. MMSI: 367139970.

Date/timePositionNaut miles runAvg speedWind from/ knotsBaromVisibWave heightAir tempDewpointWater temp
2017-Oct-14 13:18N 32°40' W 091°07'1 4.5
2017-Oct-14 13:00N 32°40' W 091°08'2 4.2
2017-Oct-14 12:30N 32°38' W 091°09'2 4.9
2017-Oct-14 12:00N 32°36' W 091°08'2 4.8
2017-Oct-14 11:30N 32°34' W 091°06'2 4.0
2017-Oct-14 11:00N 32°32' W 091°06'3 6.0
2017-Oct-14 10:30N 32°29' W 091°07'3 5.2
2017-Oct-14 10:00N 32°27' W 091°05'2 4.4
2017-Oct-14 09:30N 32°26' W 091°03'2 4.9
2017-Oct-14 09:00N 32°25' W 091°00'2 4.3
2017-Oct-14 08:30N 32°23' W 090°60'2 4.6
2017-Oct-14 08:00N 32°21' W 090°59'3 5.2
2017-Oct-14 07:30N 32°21' W 090°56'2 4.1
2017-Oct-14 07:00N 32°20' W 090°54'2 4.6
2017-Oct-14 06:30N 32°18' W 090°56'0 0.1
2017-Oct-14 06:00N 32°18' W 090°56'0 0.4
2017-Oct-14 05:30N 32°18' W 090°56'1 2.2
2017-Oct-14 05:00N 32°17' W 090°57'2 4.2
2017-Oct-14 04:30N 32°15' W 090°58'2 3.5
2017-Oct-14 04:00N 32°14' W 090°59'1 2.5
2017-Oct-14 03:30N 32°13' W 090°59'2 4.7
2017-Oct-14 03:00N 32°10' W 091°00'2 4.6
2017-Oct-14 02:30N 32°08' W 091°00'2 4.1
2017-Oct-14 02:00N 32°07' W 091°03'3 5.3
2017-Oct-14 01:30N 32°08' W 091°06'2 3.8
2017-Oct-14 01:00N 32°06' W 091°06'4 1.9
2017-Oct-13 23:07N 32°03' W 091°03'1 5.2
2017-Oct-13 22:51N 32°02' W 091°04'26 4.0
2017-Oct-13 16:12N 31°42' W 091°24'1 6.2
2017-Oct-13 16:00N 31°41' W 091°24'9 2.8
2017-Oct-13 12:56N 31°32' W 091°27'  
2017-Oct-09 05:57N 31°51' W 091°16'8 7.1
2017-Oct-09 04:47N 31°59' W 091°11'3 7.2
2017-Oct-09 04:26N 31°59' W 091°08'3 7.0
2017-Oct-09 04:01N 32°00' W 091°05'6 6.4
2017-Oct-09 03:07N 32°06' W 091°06'1 7.2
2017-Oct-09 03:01N 32°07' W 091°06'1 2.6
2017-Oct-09 02:31N 32°08' W 091°06'3 6.3
2017-Oct-09 02:01N 32°07' W 091°02'3 6.5
2017-Oct-09 01:29N 32°10' W 091°00'3 5.3
2017-Oct-09 01:00N 32°12' W 090°59'4 7.2
2017-Oct-09 00:31N 32°16' W 090°58'4 7.2
2017-Oct-09 00:00N 32°18' W 090°55'3 5.4
2017-Oct-08 23:31N 32°21' W 090°56'4 7.1
2017-Oct-08 23:01N 32°21' W 091°00'4 7.5
2017-Oct-08 22:30N 32°25' W 091°00'4 7.7
2017-Oct-08 22:01N 32°27' W 091°04'4 7.0
2017-Oct-08 21:30N 32°29' W 091°07'4 7.7
2017-Oct-08 21:00N 32°33' W 091°06'4 7.5
2017-Oct-08 20:31N 32°36' W 091°08'  
Track history (hours):
 
Tides and Currents Weather Stations Pressure Air Temp Water Temp Dewpoint Dewpoint Depression Visibility Wind Speed Wind Dir Waves Ship Positions

Craig E Philip

Owner: Ingram Barge Company LLC, NASHVILLE, TN. More information available from US FCC via Universal Licensing System and Coast Guard Vessel Documentation Center.

Last reported at 2017-Oct-14 13:18 UTC. Time now 2017-Oct-20 01:22 UTC.
Position N 32°40' W 091°07'.

Length 61 m.

Type: Towing. MMSI: 367139970.

Date/timePositionNaut miles runAvg speedWind from/ knotsBaromVisibWave heightAir tempDewpointWater temp
2017-Oct-14 13:18N 32°40' W 091°07'1 4.5
2017-Oct-14 13:00N 32°40' W 091°08'2 4.2
2017-Oct-14 12:30N 32°38' W 091°09'2 4.9
2017-Oct-14 12:00N 32°36' W 091°08'2 4.8
2017-Oct-14 11:30N 32°34' W 091°06'2 4.0
2017-Oct-14 11:00N 32°32' W 091°06'3 6.0
2017-Oct-14 10:30N 32°29' W 091°07'3 5.2
2017-Oct-14 10:00N 32°27' W 091°05'2 4.4
2017-Oct-14 09:30N 32°26' W 091°03'2 4.9
2017-Oct-14 09:00N 32°25' W 091°00'2 4.3
2017-Oct-14 08:30N 32°23' W 090°60'2 4.6
2017-Oct-14 08:00N 32°21' W 090°59'3 5.2
2017-Oct-14 07:30N 32°21' W 090°56'2 4.1
2017-Oct-14 07:00N 32°20' W 090°54'2 4.6
2017-Oct-14 06:30N 32°18' W 090°56'0 0.1
2017-Oct-14 06:00N 32°18' W 090°56'0 0.4
2017-Oct-14 05:30N 32°18' W 090°56'1 2.2
2017-Oct-14 05:00N 32°17' W 090°57'2 4.2
2017-Oct-14 04:30N 32°15' W 090°58'2 3.5
2017-Oct-14 04:00N 32°14' W 090°59'1 2.5
2017-Oct-14 03:30N 32°13' W 090°59'2 4.7
2017-Oct-14 03:00N 32°10' W 091°00'2 4.6
2017-Oct-14 02:30N 32°08' W 091°00'2 4.1
2017-Oct-14 02:00N 32°07' W 091°03'3 5.3
2017-Oct-14 01:30N 32°08' W 091°06'2 3.8
2017-Oct-14 01:00N 32°06' W 091°06'4 1.9
2017-Oct-13 23:07N 32°03' W 091°03'1 5.2
2017-Oct-13 22:51N 32°02' W 091°04'26 4.0
2017-Oct-13 16:12N 31°42' W 091°24'1 6.2
2017-Oct-13 16:00N 31°41' W 091°24'9 2.8
2017-Oct-13 12:56N 31°32' W 091°27'  
2017-Oct-09 05:57N 31°51' W 091°16'8 7.1
2017-Oct-09 04:47N 31°59' W 091°11'3 7.2
2017-Oct-09 04:26N 31°59' W 091°08'3 7.0
2017-Oct-09 04:01N 32°00' W 091°05'6 6.4
2017-Oct-09 03:07N 32°06' W 091°06'1 7.2
2017-Oct-09 03:01N 32°07' W 091°06'1 2.6
2017-Oct-09 02:31N 32°08' W 091°06'3 6.3
2017-Oct-09 02:01N 32°07' W 091°02'3 6.5
2017-Oct-09 01:29N 32°10' W 091°00'3 5.3
2017-Oct-09 01:00N 32°12' W 090°59'4 7.2
2017-Oct-09 00:31N 32°16' W 090°58'4 7.2
2017-Oct-09 00:00N 32°18' W 090°55'3 5.4
2017-Oct-08 23:31N 32°21' W 090°56'4 7.1
2017-Oct-08 23:01N 32°21' W 091°00'4 7.5
2017-Oct-08 22:30N 32°25' W 091°00'4 7.7
2017-Oct-08 22:01N 32°27' W 091°04'4 7.0
2017-Oct-08 21:30N 32°29' W 091°07'4 7.7
2017-Oct-08 21:00N 32°33' W 091°06'4 7.5
2017-Oct-08 20:31N 32°36' W 091°08'  

Dump ship's entire track history